Time;durP1;ratioP1;P1;durP2;ratioP2;P2;SDS_P1;SDS_P2;PMS_P1;PMS_P2;Temp;Humidity;BMP_temperature;BMP_pressure;BME280_temperature;BME280_humidity;BME280_pressure;Samples;Min_cycle;Max_cycle;Signal;HPM_P1;HPM_P2
2023/03/09 00:01:33;;;;;;;2.80;0.75;;;24.30;94.70;;;;;;5093259;28;20196;-76
2023/03/09 00:04:04;;;;;;;1.65;0.70;;;24.20;94.40;;;;;;5093548;28;20203;-76
2023/03/09 00:06:35;;;;;;;2.33;0.85;;;24.30;94.70;;;;;;5093632;28;20579;-76
2023/03/09 00:09:10;;;;;;;1.67;0.40;;;24.50;94.70;;;;;;5093273;28;20217;-76
2023/03/09 00:11:43;;;;;;;3.63;0.65;;;24.60;94.50;;;;;;5098849;28;20195;-76
2023/03/09 00:14:18;;;;;;;4.15;0.80;;;24.70;93.70;;;;;;5099906;28;20191;-76
2023/03/09 00:16:49;;;;;;;3.67;0.55;;;24.70;90.20;;;;;;5104024;28;20285;-76
2023/03/09 00:19:26;;;;;;;2.10;0.52;;;24.70;89.30;;;;;;5094905;28;20203;-76
2023/03/09 00:21:58;;;;;;;2.92;0.70;;;24.70;86.60;;;;;;5095175;28;20230;-77
2023/03/09 00:24:31;;;;;;;1.77;0.50;;;24.80;86.90;;;;;;5110630;28;20194;-76
2023/03/09 00:27:04;;;;;;;2.05;0.52;;;24.90;85.60;;;;;;5106625;28;20219;-75
2023/03/09 00:29:35;;;;;;;2.03;0.65;;;24.90;85.00;;;;;;5115044;28;20187;-76
2023/03/09 00:32:06;;;;;;;2.72;0.63;;;25.10;86.50;;;;;;5107961;28;20199;-75
2023/03/09 00:34:37;;;;;;;2.55;0.60;;;25.10;84.40;;;;;;5096387;28;20559;-76
2023/03/09 00:37:08;;;;;;;4.60;0.80;;;25.20;84.90;;;;;;5093698;28;20203;-76
2023/03/09 00:39:41;;;;;;;2.03;0.60;;;25.30;84.40;;;;;;5080825;28;20225;-76
2023/03/09 00:42:13;;;;;;;1.77;0.60;;;25.20;80.10;;;;;;5082134;28;20210;-75
2023/03/09 00:44:46;;;;;;;4.40;0.85;;;25.20;82.40;;;;;;5081142;28;20194;-76
2023/03/09 00:47:18;;;;;;;1.90;0.75;;;25.20;80.80;;;;;;5086787;28;20301;-75
2023/03/09 00:49:56;;;;;;;6.85;0.95;;;25.20;81.20;;;;;;5083895;28;20634;-76
2023/03/09 00:52:35;;;;;;;4.72;0.70;;;25.30;81.50;;;;;;5126788;28;20254;-76
2023/03/09 00:55:12;;;;;;;2.30;0.43;;;25.40;79.00;;;;;;5119193;28;20230;-75
2023/03/09 00:57:43;;;;;;;1.65;0.68;;;25.50;80.60;;;;;;5099644;28;20263;-76
2023/03/09 01:00:15;;;;;;;1.27;0.70;;;25.30;79.10;;;;;;5094743;28;20221;-76
2023/03/09 01:02:46;;;;;;;2.67;0.57;;;25.30;79.70;;;;;;5080460;28;20205;-76
2023/03/09 01:05:17;;;;;;;2.47;0.80;;;25.40;78.50;;;;;;5079821;28;20202;-76
2023/03/09 01:07:48;;;;;;;1.88;0.50;;;25.50;80.40;;;;;;5080927;28;20199;-75
2023/03/09 01:10:21;;;;;;;3.83;0.77;;;25.50;78.80;;;;;;5080395;28;20207;-77
2023/03/09 01:12:54;;;;;;;1.55;0.80;;;25.50;78.70;;;;;;5087498;28;20198;-75
2023/03/09 01:15:26;;;;;;;3.65;0.73;;;25.70;76.10;;;;;;5079627;28;20199;-76
2023/03/09 01:17:57;;;;;;;2.47;0.57;;;25.70;73.80;;;;;;5086547;28;20221;-76
2023/03/09 01:20:28;;;;;;;1.17;0.50;;;25.70;75.00;;;;;;5078025;28;20249;-76
2023/03/09 01:22:59;;;;;;;0.90;0.55;;;25.80;73.10;;;;;;5077938;28;20226;-77
2023/03/09 01:25:32;;;;;;;2.17;0.50;;;25.70;71.60;;;;;;5079748;28;20194;-78
2023/03/09 01:28:03;;;;;;;2.67;0.70;;;25.80;74.00;;;;;;5077739;28;20312;-76
2023/03/09 01:30:35;;;;;;;3.08;0.77;;;25.80;71.40;;;;;;5077657;28;20202;-77
2023/03/09 01:33:06;;;;;;;3.67;0.63;;;25.80;73.20;;;;;;5085656;28;20194;-76
2023/03/09 01:35:37;;;;;;;3.72;0.70;;;25.90;73.20;;;;;;5097368;28;20778;-76
2023/03/09 01:38:08;;;;;;;2.53;0.95;;;25.90;73.90;;;;;;5109155;28;20229;-76
2023/03/09 01:40:49;;;;;;;7.13;0.80;;;25.90;71.60;;;;;;5111994;28;20596;-76
2023/03/09 01:43:34;;;;;;;2.72;0.70;;;25.80;72.40;;;;;;5075775;28;20187;-76
2023/03/09 01:46:43;;;;;;;2.38;0.73;;;26.00;72.60;;;;;;5073016;28;20790;-76
2023/03/09 01:49:34;;;;;;;4.93;0.82;;;26.20;73.80;;;;;;5067443;28;20209;-76
2023/03/09 01:52:11;;;;;;;1.05;0.60;;;26.20;72.20;;;;;;5070682;28;20670;-76
2023/03/09 01:54:48;;;;;;;2.20;0.60;;;26.30;71.90;;;;;;5074183;28;20229;-76
2023/03/09 01:57:30;;;;;;;2.28;0.50;;;26.50;68.30;;;;;;5095093;28;20194;-76
2023/03/09 02:00:07;;;;;;;3.08;0.65;;;26.60;63.40;;;;;;5095127;28;20202;-75
2023/03/09 02:02:41;;;;;;;0.45;0.38;;;26.60;66.20;;;;;;5071290;28;20217;-76
2023/03/09 02:05:15;;;;;;;2.03;0.50;;;26.70;66.50;;;;;;5070494;28;20564;-76
2023/03/09 02:07:54;;;;;;;0.73;0.43;;;26.80;64.90;;;;;;5072020;28;20678;-76
2023/03/09 02:10:30;;;;;;;1.45;0.50;;;26.90;64.40;;;;;;5071545;28;20203;-75
2023/03/09 02:13:07;;;;;;;1.35;0.45;;;27.00;63.70;;;;;;5080502;28;20201;-75
2023/03/09 02:15:38;;;;;;;2.60;0.60;;;27.10;61.00;;;;;;5079106;28;20480;-75
2023/03/09 02:18:10;;;;;;;3.47;0.63;;;26.90;59.30;;;;;;5079248;28;20219;-76
2023/03/09 02:20:49;;;;;;;0.93;0.40;;;26.90;60.10;;;;;;5076134;28;20226;-76
2023/03/09 02:23:27;;;;;;;1.38;0.60;;;26.90;59.60;;;;;;5093470;28;20584;-76
2023/03/09 02:26:03;;;;;;;3.13;0.75;;;26.90;59.40;;;;;;5111852;28;20566;-77
2023/03/09 02:28:37;;;;;;;3.88;0.70;;;26.90;59.50;;;;;;5103806;28;20199;-76
2023/03/09 02:31:09;;;;;;;2.83;0.80;;;26.90;60.00;;;;;;5106061;28;20277;-76
2023/03/09 02:33:40;;;;;;;0.90;0.50;;;27.10;61.70;;;;;;5102812;28;20609;-76
2023/03/09 02:36:14;;;;;;;2.30;0.80;;;27.10;58.30;;;;;;5104171;28;20206;-76
2023/03/09 02:38:45;;;;;;;2.30;0.30;;;27.10;58.60;;;;;;5105084;28;20262;-76
2023/03/09 02:41:17;;;;;;;3.40;0.60;;;27.20;57.10;;;;;;5105242;28;20206;-77
2023/03/09 02:43:54;;;;;;;0.80;0.40;;;27.20;59.10;;;;;;5091263;28;20195;-76
2023/03/09 02:46:26;;;;;;;1.30;0.70;;;27.30;57.10;;;;;;5093750;28;20665;-77
2023/03/09 02:48:57;;;;;;;2.58;0.70;;;27.30;56.50;;;;;;5102205;28;20203;-76
2023/03/09 02:51:30;;;;;;;3.85;0.68;;;27.30;56.10;;;;;;5091643;28;20215;-77
2023/03/09 02:54:01;;;;;;;1.95;0.70;;;27.20;56.00;;;;;;5092073;28;20200;-76
2023/03/09 02:56:32;;;;;;;1.75;0.60;;;27.30;56.20;;;;;;5100432;28;20226;-78
2023/03/09 02:59:05;;;;;;;1.70;0.80;;;27.40;55.10;;;;;;5092273;28;20219;-77
2023/03/09 03:01:37;;;;;;;1.45;0.50;;;27.40;54.10;;;;;;5090222;28;20543;-77
2023/03/09 03:04:08;;;;;;;3.08;0.77;;;27.40;55.00;;;;;;5090614;28;20218;-77
2023/03/09 03:06:39;;;;;;;2.03;0.57;;;27.60;56.00;;;;;;5090373;28;20195;-77
2023/03/09 03:09:10;;;;;;;1.45;0.60;;;27.40;54.90;;;;;;5091080;28;20199;-77
2023/03/09 03:11:41;;;;;;;6.05;0.82;;;27.60;56.20;;;;;;5091345;28;20199;-77
2023/03/09 03:14:14;;;;;;;2.13;1.10;;;27.80;55.40;;;;;;5105593;28;20198;-77
2023/03/09 03:16:46;;;;;;;2.85;0.73;;;27.80;53.40;;;;;;5111460;28;20676;-77
2023/03/09 03:19:17;;;;;;;1.00;0.60;;;27.80;54.30;;;;;;5112045;28;20218;-76
2023/03/09 03:21:48;;;;;;;4.50;0.80;;;27.90;54.60;;;;;;5108345;28;20205;-77
2023/03/09 03:24:20;;;;;;;3.38;1.00;;;28.10;54.40;;;;;;5091264;28;20199;-77
2023/03/09 03:26:51;;;;;;;2.08;0.70;;;28.10;53.70;;;;;;5090261;28;20223;-76
2023/03/09 03:29:24;;;;;;;3.17;0.60;;;28.20;54.90;;;;;;5090990;28;20253;-76
2023/03/09 03:31:55;;;;;;;3.13;0.40;;;28.40;55.30;;;;;;5090307;28;20659;-77
2023/03/09 03:34:26;;;;;;;2.72;0.57;;;28.50;53.60;;;;;;5090586;28;20211;-77
2023/03/09 03:36:58;;;;;;;1.38;0.50;;;28.50;52.70;;;;;;5090275;28;20199;-78
2023/03/09 03:39:29;;;;;;;3.85;0.50;;;28.40;52.00;;;;;;5107100;28;20223;-77
2023/03/09 03:42:00;;;;;;;4.03;0.50;;;28.40;53.40;;;;;;5114644;28;20209;-77
2023/03/09 03:44:35;;;;;;;1.58;0.50;;;28.50;53.80;;;;;;5111675;28;20568;-76
2023/03/09 03:47:07;;;;;;;1.80;0.77;;;28.60;51.60;;;;;;5106357;28;20199;-77
2023/03/09 03:49:38;;;;;;;0.63;0.50;;;28.70;53.20;;;;;;5091373;28;20208;-77
2023/03/09 03:52:10;;;;;;;1.60;0.60;;;28.80;54.50;;;;;;5090817;28;20560;-77
2023/03/09 03:54:41;;;;;;;1.70;0.80;;;29.00;58.80;;;;;;5103137;28;20194;-77
2023/03/09 03:57:13;;;;;;;8.63;1.02;;;29.00;58.30;;;;;;5110618;28;20214;-76
2023/03/09 03:59:46;;;;;;;3.75;0.90;;;28.90;61.40;;;;;;5104324;28;20223;-76
2023/03/09 04:02:17;;;;;;;3.53;1.05;;;28.70;64.40;;;;;;5097200;28;20199;-76
2023/03/09 04:04:48;;;;;;;2.47;0.77;;;28.60;66.10;;;;;;5090041;28;20662;-76
2023/03/09 04:07:20;;;;;;;3.53;0.95;;;28.50;66.00;;;;;;5091691;28;20192;-75
2023/03/09 04:09:51;;;;;;;2.53;1.10;;;28.50;67.20;;;;;;5092299;28;20199;-75
2023/03/09 04:12:22;;;;;;;3.78;1.13;;;28.50;67.90;;;;;;5094026;28;20195;-76
2023/03/09 04:14:55;;;;;;;3.53;0.93;;;28.50;67.00;;;;;;5093369;28;20206;-76
2023/03/09 04:17:26;;;;;;;2.60;0.90;;;28.50;67.70;;;;;;5104719;28;20563;-76
2023/03/09 04:19:57;;;;;;;1.85;0.70;;;28.40;68.50;;;;;;5102093;28;20582;-76
2023/03/09 04:22:28;;;;;;;3.88;0.75;;;28.30;68.00;;;;;;5095765;28;20684;-75
2023/03/09 04:25:01;;;;;;;3.28;0.93;;;28.20;68.20;;;;;;5098166;28;20203;-75
2023/03/09 04:27:32;;;;;;;1.15;0.60;;;28.20;68.30;;;;;;5104589;28;20227;-76
2023/03/09 04:30:05;;;;;;;1.92;0.75;;;28.10;68.10;;;;;;5110120;28;20223;-75
2023/03/09 04:32:36;;;;;;;1.90;0.80;;;28.10;69.60;;;;;;5102447;28;20230;-76
2023/03/09 04:35:08;;;;;;;4.55;1.00;;;28.10;70.40;;;;;;5096525;28;20249;-76
2023/03/09 04:37:39;;;;;;;2.85;0.73;;;28.00;69.90;;;;;;5098482;28;20191;-76
2023/03/09 04:40:11;;;;;;;1.67;0.70;;;27.90;69.10;;;;;;5095255;28;20230;-75
2023/03/09 04:42:43;;;;;;;3.28;0.85;;;27.90;69.70;;;;;;5098311;28;20202;-76
2023/03/09 04:45:16;;;;;;;1.83;0.73;;;27.80;69.60;;;;;;5098440;28;20198;-76
2023/03/09 04:47:47;;;;;;;2.53;0.77;;;27.80;70.80;;;;;;5110076;28;20676;-76
2023/03/09 04:50:18;;;;;;;1.67;0.68;;;27.80;72.60;;;;;;5095758;28;20657;-76
2023/03/09 04:52:49;;;;;;;1.00;0.70;;;27.80;71.00;;;;;;5101009;28;20191;-76
2023/03/09 04:55:21;;;;;;;3.08;0.98;;;27.70;71.80;;;;;;5099206;28;20203;-76
2023/03/09 04:57:52;;;;;;;2.78;0.90;;;27.70;70.70;;;;;;5095951;27;20209;-76
2023/03/09 05:00:26;;;;;;;4.03;0.73;;;27.80;70.70;;;;;;5111722;28;20223;-75
2023/03/09 05:02:57;;;;;;;4.18;0.90;;;27.70;71.20;;;;;;5092538;28;20215;-75
2023/03/09 05:05:28;;;;;;;2.17;0.82;;;27.70;71.20;;;;;;5101668;28;20248;-76
2023/03/09 05:07:59;;;;;;;1.58;0.80;;;27.70;71.80;;;;;;5112430;28;20668;-77
2023/03/09 05:10:30;;;;;;;1.33;0.55;;;27.60;70.10;;;;;;5096404;28;20191;-75
2023/03/09 05:13:01;;;;;;;3.33;0.80;;;27.60;71.40;;;;;;5105117;28;20209;-76
2023/03/09 05:15:34;;;;;;;2.00;0.60;;;27.70;71.30;;;;;;5094360;28;20203;-77
2023/03/09 05:18:06;;;;;;;1.42;0.47;;;27.60;70.20;;;;;;5101864;28;20206;-76
2023/03/09 05:20:37;;;;;;;3.28;0.70;;;27.50;69.40;;;;;;5103435;28;20606;-76
2023/03/09 05:23:08;;;;;;;1.85;0.70;;;27.60;70.20;;;;;;5103712;28;20197;-77
2023/03/09 05:25:39;;;;;;;3.67;0.63;;;27.60;70.10;;;;;;5108523;28;20574;-77
2023/03/09 05:28:11;;;;;;;4.18;0.85;;;27.80;70.20;;;;;;5111902;28;20201;-76
2023/03/09 05:30:44;;;;;;;1.05;0.70;;;27.80;69.50;;;;;;5092452;28;20199;-77
2023/03/09 05:33:15;;;;;;;2.05;1.00;;;27.90;67.70;;;;;;5091849;28;20211;-77
2023/03/09 05:35:48;;;;;;;2.58;0.80;;;27.80;68.10;;;;;;5099879;28;20194;-77
2023/03/09 05:38:19;;;;;;;3.25;0.93;;;27.90;68.10;;;;;;5098177;28;20563;-78
2023/03/09 05:40:50;;;;;;;4.30;1.08;;;27.90;66.60;;;;;;5093300;28;20226;-77
2023/03/09 05:43:21;;;;;;;2.65;0.93;;;27.90;67.00;;;;;;5102045;28;20205;-76
2023/03/09 05:46:00;;;;;;;5.80;1.00;;;27.90;67.00;;;;;;5098376;28;20195;-76
2023/03/09 05:48:31;;;;;;;5.40;2.70;;;27.90;67.40;;;;;;5092195;28;20198;-76
2023/03/09 05:51:04;;;;;;;5.65;3.15;;;28.20;65.00;;;;;;5091919;28;20199;-76
2023/03/09 05:53:35;;;;;;;4.05;1.30;;;28.20;66.20;;;;;;5090825;28;20266;-75
2023/03/09 05:56:07;;;;;;;3.63;1.00;;;28.20;64.50;;;;;;5098849;28;20221;-76
2023/03/09 05:58:38;;;;;;;5.32;1.08;;;28.40;65.70;;;;;;5094804;28;20195;-76
2023/03/09 06:01:23;;;;;;;2.28;0.82;;;28.30;63.50;;;;;;5101120;28;20564;-76
2023/03/09 06:03:54;;;;;;;6.40;0.90;;;28.40;64.50;;;;;;5103531;28;20214;-77
2023/03/09 06:06:26;;;;;;;1.63;0.75;;;28.50;63.70;;;;;;5098991;28;20190;-76
2023/03/09 06:08:58;;;;;;;2.08;0.55;;;28.60;64.30;;;;;;5101548;28;20192;-76
2023/03/09 06:11:29;;;;;;;2.30;0.98;;;28.80;64.00;;;;;;5095069;28;20202;-76
2023/03/09 06:14:00;;;;;;;2.75;0.70;;;28.80;63.20;;;;;;5104286;28;20204;-76
2023/03/09 06:16:33;;;;;;;2.40;0.73;;;29.00;63.10;;;;;;5105002;28;20590;-76
2023/03/09 06:19:04;;;;;;;4.00;0.73;;;29.30;62.20;;;;;;5097820;28;20218;-75
2023/03/09 06:21:35;;;;;;;3.72;1.10;;;29.30;61.90;;;;;;5105728;28;20195;-77
2023/03/09 06:24:07;;;;;;;3.95;0.90;;;29.30;61.40;;;;;;5091989;28;20681;-76
2023/03/09 06:26:38;;;;;;;4.22;1.20;;;29.40;61.40;;;;;;5091255;28;20661;-76
2023/03/09 06:29:09;;;;;;;3.08;0.95;;;29.50;60.70;;;;;;5092905;28;20203;-77
2023/03/09 06:31:42;;;;;;;3.65;1.35;;;29.60;60.10;;;;;;5109771;28;20221;-76
2023/03/09 06:34:13;;;;;;;2.47;1.02;;;29.80;59.70;;;;;;5107912;28;20209;-76
2023/03/09 06:36:44;;;;;;;3.08;1.00;;;30.10;58.60;;;;;;5091784;28;20195;-77
2023/03/09 06:39:16;;;;;;;2.38;0.90;;;30.20;57.80;;;;;;5101236;28;20327;-76
2023/03/09 06:41:47;;;;;;;2.53;0.73;;;30.50;56.50;;;;;;5099027;28;20191;-76
2023/03/09 06:44:18;;;;;;;2.08;0.80;;;30.50;56.90;;;;;;5097766;28;20277;-76
2023/03/09 06:46:51;;;;;;;1.77;0.77;;;30.50;56.90;;;;;;5107837;28;20199;-76
2023/03/09 06:49:22;;;;;;;4.03;0.95;;;30.50;56.10;;;;;;5095955;28;20198;-77
2023/03/09 06:51:54;;;;;;;2.38;0.90;;;30.60;56.30;;;;;;5095468;28;20206;-76
2023/03/09 06:54:25;;;;;;;2.33;0.80;;;30.70;56.00;;;;;;5107457;28;20251;-76
2023/03/09 06:56:57;;;;;;;2.00;0.70;;;31.00;55.30;;;;;;5098174;28;20203;-76
2023/03/09 06:59:32;;;;;;;3.55;0.60;;;31.00;54.80;;;;;;5093037;28;20705;-76
2023/03/09 07:02:05;;;;;;;3.45;0.77;;;31.10;54.20;;;;;;5101192;28;20568;-76
2023/03/09 07:04:36;;;;;;;2.03;0.80;;;31.30;55.40;;;;;;5094147;28;20211;-76
2023/03/09 07:07:08;;;;;;;3.75;0.90;;;31.30;56.10;;;;;;5094426;28;20199;-75
2023/03/09 07:09:39;;;;;;;2.72;0.88;;;31.30;55.50;;;;;;5110672;28;20205;-75
2023/03/09 07:12:10;;;;;;;2.28;0.70;;;31.20;55.40;;;;;;5095191;28;20195;-76
2023/03/09 07:14:41;;;;;;;1.10;0.70;;;31.30;54.90;;;;;;5112940;28;20203;-76
2023/03/09 07:17:23;;;;;;;4.63;1.00;;;31.30;55.30;;;;;;5095810;28;20207;-76
2023/03/09 07:19:56;;;;;;;2.22;0.70;;;31.70;55.20;;;;;;5096893;28;20219;-76
2023/03/09 07:22:27;;;;;;;2.83;0.88;;;31.70;54.70;;;;;;5090945;28;20196;-76
2023/03/09 07:24:58;;;;;;;2.20;0.88;;;31.50;55.20;;;;;;5104613;28;20198;-76
2023/03/09 07:27:30;;;;;;;2.67;0.85;;;31.40;55.40;;;;;;5094010;28;20221;-76
2023/03/09 07:30:01;;;;;;;5.03;0.80;;;31.30;56.40;;;;;;5097543;28;20206;-76
2023/03/09 07:32:34;;;;;;;4.82;0.80;;;31.20;56.10;;;;;;5093448;28;20192;-76
2023/03/09 07:35:06;;;;;;;3.75;1.20;;;30.90;56.50;;;;;;5103714;28;20561;-76
2023/03/09 07:37:37;;;;;;;2.75;0.77;;;30.90;57.30;;;;;;5106476;28;20198;-77
2023/03/09 07:40:09;;;;;;;2.40;0.65;;;30.60;57.10;;;;;;5103474;28;20692;-77
2023/03/09 07:42:40;;;;;;;2.25;0.80;;;30.30;58.10;;;;;;5095807;28;20573;-76
2023/03/09 07:45:12;;;;;;;2.53;0.90;;;29.90;58.70;;;;;;5097986;28;20665;-76
2023/03/09 07:47:45;;;;;;;3.72;0.85;;;29.40;59.10;;;;;;5112893;28;20198;-76
2023/03/09 07:50:16;;;;;;;3.65;0.85;;;29.10;59.60;;;;;;5116370;27;20198;-76
2023/03/09 07:52:47;;;;;;;3.85;1.30;;;28.80;61.10;;;;;;5111075;27;20222;-76
2023/03/09 07:55:22;;;;;;;3.22;1.63;;;28.50;62.50;;;;;;5096647;28;20195;-76
2023/03/09 07:57:53;;;;;;;3.58;0.95;;;28.20;63.10;;;;;;5094098;28;20657;-76
2023/03/09 08:00:27;;;;;;;2.05;1.00;;;27.80;63.50;;;;;;5101114;28;20700;-76
2023/03/09 08:03:03;;;;;;;2.22;1.15;;;27.60;65.90;;;;;;5109975;28;20221;-77
2023/03/09 08:05:34;;;;;;;1.90;0.90;;;27.30;66.30;;;;;;5112615;28;20190;-77
2023/03/09 08:08:05;;;;;;;3.08;1.20;;;27.00;67.40;;;;;;5096855;28;20563;-76
2023/03/09 08:10:36;;;;;;;2.40;0.77;;;26.90;68.80;;;;;;5097491;28;20191;-76
2023/03/09 08:13:07;;;;;;;1.13;0.73;;;26.70;68.00;;;;;;5096161;28;20194;-76
2023/03/09 08:15:39;;;;;;;2.97;0.70;;;26.50;68.00;;;;;;5114194;28;20587;-75
2023/03/09 08:18:12;;;;;;;2.00;0.75;;;26.40;67.80;;;;;;5110316;28;20692;-76
2023/03/09 08:20:43;;;;;;;2.92;1.20;;;26.30;68.00;;;;;;5093578;28;20255;-76
2023/03/09 08:23:14;;;;;;;2.83;1.10;;;26.10;68.70;;;;;;5100310;28;20199;-76
2023/03/09 08:25:46;;;;;;;2.90;1.30;;;26.10;69.00;;;;;;5112721;28;20210;-79
2023/03/09 08:28:17;;;;;;;2.63;0.88;;;26.00;69.90;;;;;;5093728;28;20198;-76
2023/03/09 08:30:48;;;;;;;3.30;1.00;;;25.90;68.80;;;;;;5098587;28;20192;-76
2023/03/09 08:33:21;;;;;;;3.35;0.90;;;25.70;69.00;;;;;;5113034;28;20199;-77
2023/03/09 08:35:52;;;;;;;2.40;0.80;;;25.60;69.30;;;;;;5108220;28;20194;-77
2023/03/09 08:38:23;;;;;;;1.67;0.82;;;25.50;69.90;;;;;;5098281;28;20191;-76
2023/03/09 08:40:54;;;;;;;2.50;1.08;;;25.50;70.70;;;;;;5106964;28;20219;-77
2023/03/09 08:43:25;;;;;;;2.10;1.10;;;25.50;70.40;;;;;;5101524;28;20195;-76
2023/03/09 08:45:57;;;;;;;4.40;1.20;;;25.40;70.80;;;;;;5110287;28;20187;-76
2023/03/09 08:48:30;;;;;;;2.25;1.30;;;25.30;71.80;;;;;;5108908;28;20194;-77
2023/03/09 08:51:04;;;;;;;4.18;1.20;;;25.20;72.00;;;;;;5104243;28;20199;-77
2023/03/09 08:53:35;;;;;;;2.03;0.93;;;25.20;73.00;;;;;;5108492;28;20198;-77
2023/03/09 08:56:07;;;;;;;2.20;0.95;;;25.20;73.90;;;;;;5106865;28;20565;-77
2023/03/09 08:58:39;;;;;;;3.30;1.40;;;25.10;73.70;;;;;;5092591;28;20195;-78
2023/03/09 09:01:12;;;;;;;4.13;1.27;;;25.10;74.20;;;;;;5100720;28;20226;-76
2023/03/09 09:03:45;;;;;;;2.90;1.50;;;25.10;75.10;;;;;;5094976;28;20601;-76
2023/03/09 09:06:19;;;;;;;3.17;1.13;;;25.10;76.70;;;;;;5110183;28;20681;-77
2023/03/09 09:08:50;;;;;;;2.58;1.00;;;25.10;76.40;;;;;;5097816;28;20665;-77
2023/03/09 09:11:21;;;;;;;2.63;1.08;;;25.10;77.60;;;;;;5102711;28;20191;-78
2023/03/09 09:13:54;;;;;;;2.67;1.20;;;25.10;78.30;;;;;;5092052;28;20204;-78
2023/03/09 09:16:27;;;;;;;4.25;1.30;;;25.00;79.00;;;;;;5096522;28;20243;-77
2023/03/09 09:19:00;;;;;;;3.15;1.10;;;24.90;79.30;;;;;;5096769;28;20196;-77
2023/03/09 09:21:32;;;;;;;3.53;1.10;;;24.90;79.40;;;;;;5092487;28;20219;-77
2023/03/09 09:24:03;;;;;;;2.05;1.17;;;24.90;79.40;;;;;;5091551;28;20203;-77
2023/03/09 09:26:34;;;;;;;2.80;1.30;;;24.80;81.10;;;;;;5092247;28;20242;-77
2023/03/09 09:29:06;;;;;;;2.30;1.10;;;24.90;81.60;;;;;;5101003;28;20571;-77
2023/03/09 09:31:37;;;;;;;2.97;1.20;;;24.90;80.60;;;;;;5108412;28;20227;-76
2023/03/09 09:34:10;;;;;;;3.53;1.63;;;24.90;81.20;;;;;;5091762;28;20195;-77
2023/03/09 09:36:43;;;;;;;2.28;1.30;;;24.90;81.50;;;;;;5092790;28;20206;-77
2023/03/09 09:39:15;;;;;;;3.50;1.10;;;24.80;81.80;;;;;;5110484;28;20217;-77
2023/03/09 09:41:48;;;;;;;2.65;1.20;;;24.80;82.90;;;;;;5112313;28;20225;-77
2023/03/09 09:44:23;;;;;;;3.42;1.10;;;24.80;83.40;;;;;;5108285;28;20221;-77
2023/03/09 09:46:57;;;;;;;2.30;1.20;;;24.80;84.20;;;;;;5108986;28;20205;-76
2023/03/09 09:49:34;;;;;;;4.28;1.52;;;24.80;84.10;;;;;;5094211;28;20202;-77
2023/03/09 09:52:20;;;;;;;2.38;1.00;;;24.80;84.70;;;;;;5092347;28;20577;-76
2023/03/09 09:54:58;;;;;;;4.28;1.10;;;24.80;85.00;;;;;;5112564;28;20198;-77
2023/03/09 09:57:40;;;;;;;2.70;1.00;;;24.70;85.40;;;;;;5111037;28;20664;-77
2023/03/09 10:00:17;;;;;;;2.72;1.10;;;24.70;87.80;;;;;;5097017;27;20591;-76
2023/03/09 10:02:59;;;;;;;4.35;1.30;;;24.70;89.40;;;;;;5092956;28;20214;-77
2023/03/09 10:05:39;;;;;;;3.40;0.90;;;24.70;89.40;;;;;;5112006;28;20247;-77
2023/03/09 10:08:28;;;;;;;3.05;1.10;;;24.70;90.70;;;;;;5107930;28;20287;-77
2023/03/09 10:11:05;;;;;;;2.58;1.00;;;24.60;90.70;;;;;;5091677;28;20199;-77
2023/03/09 10:13:42;;;;;;;3.53;1.20;;;24.50;91.90;;;;;;5102985;28;20247;-77
2023/03/09 10:16:20;;;;;;;3.33;1.50;;;24.50;93.00;;;;;;5098486;28;20194;-77
2023/03/09 10:18:54;;;;;;;5.45;2.40;;;24.50;94.00;;;;;;5096994;28;20673;-77
2023/03/09 10:21:33;;;;;;;4.40;2.10;;;24.50;94.90;;;;;;5091584;28;20289;-77
2023/03/09 10:24:16;;;;;;;2.45;1.40;;;24.50;94.60;;;;;;5107426;28;20293;-76
2023/03/09 10:26:51;;;;;;;3.80;1.48;;;24.50;96.20;;;;;;5099456;28;20227;-77
2023/03/09 10:29:28;;;;;;;1.90;1.10;;;24.50;96.20;;;;;;5099126;28;20195;-77
2023/03/09 10:32:04;;;;;;;2.85;1.20;;;24.50;96.20;;;;;;5098928;27;20209;-77
2023/03/09 10:34:41;;;;;;;3.45;1.30;;;24.40;97.70;;;;;;5093677;28;20584;-77
2023/03/09 10:37:19;;;;;;;3.70;1.55;;;24.40;99.10;;;;;;5090522;28;20195;-76
2023/03/09 10:39:50;;;;;;;3.35;1.13;;;24.40;98.40;;;;;;5097015;28;20198;-77
2023/03/09 10:42:23;;;;;;;2.83;0.85;;;24.50;99.20;;;;;;5107800;28;20230;-77
2023/03/09 10:45:08;;;;;;;3.25;0.85;;;24.40;98.90;;;;;;5094465;28;20195;-77
2023/03/09 10:48:04;;;;;;;3.83;1.08;;;24.40;98.90;;;;;;5093450;28;20199;-76
2023/03/09 10:50:37;;;;;;;6.15;1.00;;;24.30;99.80;;;;;;5097496;28;20198;-76
2023/03/09 10:53:41;;;;;;;1.45;0.80;;;24.30;99.90;;;;;;5106429;28;20191;-77
2023/03/09 10:56:20;;;;;;;2.42;0.98;;;24.30;99.90;;;;;;5104749;28;20193;-76
2023/03/09 10:59:09;;;;;;;2.20;0.98;;;24.20;99.90;;;;;;5106600;28;20210;-77
2023/03/09 11:01:41;;;;;;;3.50;1.10;;;24.30;99.90;;;;;;5109263;28;20274;-76
2023/03/09 11:04:34;;;;;;;2.63;1.02;;;24.20;99.90;;;;;;5101346;28;20280;-78
2023/03/09 11:07:10;;;;;;;1.73;1.00;;;24.10;99.90;;;;;;5097266;28;20258;-77
2023/03/09 11:09:52;;;;;;;1.63;0.75;;;24.10;99.90;;;;;;5099122;28;20235;-77
2023/03/09 11:12:27;;;;;;;3.50;1.00;;;24.20;99.90;;;;;;5100725;28;20217;-80
2023/03/09 11:15:00;;;;;;;3.90;1.10;;;24.20;99.90;;;;;;5101526;28;20191;-79
2023/03/09 11:17:37;;;;;;;2.70;1.00;;;24.20;99.90;;;;;;5104246;28;20191;-79
2023/03/09 11:20:32;;;;;;;3.63;1.10;;;24.20;99.90;;;;;;5111572;28;20281;-78
2023/03/09 11:23:12;;;;;;;3.00;1.05;;;24.10;99.90;;;;;;5096207;28;20190;-78
2023/03/09 11:26:14;;;;;;;2.53;0.90;;;24.10;99.90;;;;;;5120261;28;20191;-80
2023/03/09 11:28:56;;;;;;;4.03;1.02;;;24.10;99.90;;;;;;5110593;28;20214;-76
2023/03/09 11:31:33;;;;;;;1.23;0.73;;;24.00;99.90;;;;;;5108599;28;20599;-77
2023/03/09 11:34:04;;;;;;;3.45;1.10;;;24.00;99.90;;;;;;5115494;28;20198;-78
2023/03/09 11:36:40;;;;;;;2.83;1.00;;;24.00;99.90;;;;;;5100554;28;20209;-78
2023/03/09 11:39:22;;;;;;;2.05;0.70;;;24.00;99.90;;;;;;5107441;28;20209;-78
2023/03/09 11:41:57;;;;;;;3.30;0.95;;;24.00;99.90;;;;;;5120787;28;20206;-78
2023/03/09 11:44:34;;;;;;;4.22;1.02;;;23.90;99.90;;;;;;5105055;28;20206;-78
2023/03/09 11:47:13;;;;;;;2.88;1.10;;;23.90;99.90;;;;;;5100859;28;20203;-78
2023/03/09 11:49:50;;;;;;;3.95;1.20;;;23.90;99.90;;;;;;5101862;28;20191;-77
2023/03/09 11:52:27;;;;;;;3.75;1.20;;;23.90;99.90;;;;;;5110308;28;20240;-77
2023/03/09 11:55:01;;;;;;;2.30;1.10;;;23.90;99.90;;;;;;5100861;28;20195;-76
2023/03/09 11:57:36;;;;;;;4.10;1.30;;;23.90;99.90;;;;;;5108420;28;20195;-78
2023/03/09 12:00:11;;;;;;;2.35;1.20;;;23.80;99.90;;;;;;5110644;28;20213;-77
2023/03/09 12:02:55;;;;;;;6.53;1.58;;;23.80;99.90;;;;;;5110421;28;20221;-77
2023/03/09 12:05:29;;;;;;;3.53;1.10;;;23.70;99.90;;;;;;5102777;28;20199;-77
2023/03/09 12:08:03;;;;;;;3.75;1.55;;;23.70;99.90;;;;;;5100475;28;20195;-77
2023/03/09 12:10:38;;;;;;;3.85;1.48;;;23.60;99.90;;;;;;5101119;28;20198;-78
2023/03/09 12:13:17;;;;;;;3.35;1.20;;;23.60;99.90;;;;;;5098034;28;20195;-78
2023/03/09 12:15:53;;;;;;;4.70;1.20;;;23.60;99.90;;;;;;5109305;28;20205;-78
2023/03/09 12:18:27;;;;;;;3.58;1.15;;;23.60;99.90;;;;;;5100465;28;20205;-77
2023/03/09 12:20:59;;;;;;;3.50;1.30;;;23.60;99.90;;;;;;5114494;28;20225;-77
2023/03/09 12:23:54;;;;;;;3.45;1.20;;;23.50;99.90;;;;;;5110378;28;20214;-77
2023/03/09 12:26:34;;;;;;;4.47;1.08;;;23.40;99.90;;;;;;5113323;28;20218;-77
2023/03/09 12:29:24;;;;;;;3.55;1.20;;;23.40;99.90;;;;;;5117020;28;20345;-76
2023/03/09 12:32:23;;;;;;;3.03;1.13;;;23.40;99.90;;;;;;5100378;28;20200;-77
2023/03/09 12:34:55;;;;;;;6.10;1.23;;;23.40;99.90;;;;;;5100719;28;20188;-78
2023/03/09 12:38:05;;;;;;;3.08;1.00;;;23.30;99.90;;;;;;5098767;28;20230;-78
2023/03/09 12:40:40;;;;;;;2.75;1.10;;;23.30;99.90;;;;;;5060010;28;20200;-76
2023/03/09 12:43:54;;;;;;;2.85;1.00;;;23.30;99.90;;;;;;5049932;28;20196;-76
2023/03/09 12:46:59;;;;;;;2.55;1.10;;;23.30;99.90;;;;;;5090487;28;20249;-77
2023/03/09 12:49:37;;;;;;;3.22;1.05;;;23.20;99.90;;;;;;5088952;28;20650;-76
2023/03/09 12:52:35;;;;;;;3.47;1.15;;;23.30;99.90;;;;;;5093044;28;20195;-76
2023/03/09 12:55:18;;;;;;;2.47;1.20;;;23.30;99.90;;;;;;5107415;28;20198;-78
2023/03/09 12:57:50;;;;;;;1.92;1.23;;;23.20;99.90;;;;;;5094717;28;20199;-77
2023/03/09 13:00:30;;;;;;;2.65;1.13;;;23.00;99.90;;;;;;5097176;28;20256;-76
2023/03/09 13:03:10;;;;;;;2.50;1.20;;;23.00;99.90;;;;;;5098209;28;20279;-77
2023/03/09 13:05:50;;;;;;;2.28;1.10;;;22.90;99.90;;;;;;5102745;28;20246;-78
2023/03/09 13:08:30;;;;;;;3.33;1.00;;;22.90;99.90;;;;;;5108776;28;20779;-77
2023/03/09 13:11:40;;;;;;;3.65;1.10;;;22.90;99.90;;;;;;5113470;28;20286;-78
2023/03/09 13:14:18;;;;;;;3.05;1.10;;;22.90;99.90;;;;;;5097952;28;20194;-78
2023/03/09 13:17:01;;;;;;;2.30;1.20;;;22.90;99.90;;;;;;5109269;28;20213;-77
2023/03/09 13:19:53;;;;;;;2.90;1.20;;;22.80;99.90;;;;;;5098260;28;20195;-77
2023/03/09 13:22:41;;;;;;;3.47;1.15;;;22.70;99.90;;;;;;5112195;28;20264;-77
2023/03/09 13:25:33;;;;;;;3.50;1.35;;;22.70;99.90;;;;;;5098489;28;20199;-76
2023/03/09 13:28:25;;;;;;;2.50;1.10;;;22.70;99.90;;;;;;5095285;28;20280;-77